Airport Information

KSKA - Fairchild AFB

KSKA 160758Z 04006KT 10SM OVC060 M04/M05 A2992 RMK AO2A SLP164 T10381051 410191075


  • General Information

  • Coordinates: N 47°36'54"/ W 117°39'20"
  • Location: N/A
  • Surveyed Elevation: 2461 MSL

Operations

Flow Name Active Runways Conditions

Green background denotes normal operations.


Common Frequencies

Callsign Frequency Position Name

More at the Document Center


Charts